Time;durP1;ratioP1;P1;durP2;ratioP2;P2;SDS_P1;SDS_P2;PMS_P1;PMS_P2;Temp;Humidity;BMP_temperature;BMP_pressure;BME280_temperature;BME280_humidity;BME280_pressure;Samples;Min_cycle;Max_cycle;Signal;HPM_P1;HPM_P2
2021/11/26 00:02:25;;;;;;;12.43;11.52;;;;;;;;;;7334072;19;154089;-13
2021/11/26 00:04:57;;;;;;;11.35;10.55;;;;;;;;;;7334802;19;153861;-16
2021/11/26 00:07:31;;;;;;;12.68;11.68;;;;;;;;;;7333246;19;161880;-13
2021/11/26 00:10:03;;;;;;;12.23;11.25;;;;;;;;;;7333463;19;162613;-14
2021/11/26 00:12:38;;;;;;;12.80;11.77;;;;;;;;;;7332678;19;154215;-14
2021/11/26 00:15:20;;;;;;;11.82;10.93;;;;;;;;;;7333416;19;153636;-13
2021/11/26 00:17:57;;;;;;;12.65;11.63;;;;;;;;;;7331386;19;161831;-14
2021/11/26 00:20:28;;;;;;;11.27;10.48;;;;;;;;;;7333687;19;162812;-14
2021/11/26 00:23:02;;;;;;;11.20;10.40;;;;;;;;;;7334174;19;153907;-14
2021/11/26 00:25:34;;;;;;;11.40;10.60;;;;;;;;;;7334624;19;153576;-14
2021/11/26 00:28:06;;;;;;;11.90;11.02;;;;;;;;;;7334171;19;161763;-14
2021/11/26 00:30:37;;;;;;;10.85;10.02;;;;;;;;;;7332039;19;162549;-14
2021/11/26 00:33:08;;;;;;;11.70;10.80;;;;;;;;;;7330954;19;153907;-15
2021/11/26 00:35:40;;;;;;;10.55;9.85;;;;;;;;;;7329257;19;153842;-13
2021/11/26 00:38:14;;;;;;;11.25;10.45;;;;;;;;;;7328257;19;161951;-13
2021/11/26 00:40:46;;;;;;;10.45;9.65;;;;;;;;;;7330186;19;163113;-12
2021/11/26 00:43:17;;;;;;;10.73;9.90;;;;;;;;;;7329258;19;154412;-12
2021/11/26 00:45:50;;;;;;;10.67;9.97;;;;;;;;;;7330644;19;153517;-13
2021/11/26 00:48:21;;;;;;;10.95;10.05;;;;;;;;;;7330456;19;161949;-12
2021/11/26 00:50:53;;;;;;;10.25;9.50;;;;;;;;;;7328941;19;162489;-14
2021/11/26 00:53:26;;;;;;;10.35;9.55;;;;;;;;;;7330448;19;154109;-12
2021/11/26 00:55:58;;;;;;;10.32;9.52;;;;;;;;;;7330157;19;153558;-12
2021/11/26 00:58:29;;;;;;;9.93;9.23;;;;;;;;;;7327199;19;161987;-12
2021/11/26 01:01:01;;;;;;;10.10;9.40;;;;;;;;;;7329724;19;162332;-14
2021/11/26 01:03:32;;;;;;;9.80;9.10;;;;;;;;;;7330108;19;154136;-12
2021/11/26 01:06:04;;;;;;;9.85;9.15;;;;;;;;;;7328624;19;153444;-13
2021/11/26 01:08:39;;;;;;;9.60;8.90;;;;;;;;;;7329551;19;161870;-12
2021/11/26 01:11:10;;;;;;;9.85;9.15;;;;;;;;;;7329607;19;162377;-14
2021/11/26 01:13:42;;;;;;;10.00;9.30;;;;;;;;;;7329902;19;153999;-14
2021/11/26 01:16:13;;;;;;;9.20;8.55;;;;;;;;;;7329783;19;153942;-13
2021/11/26 01:18:44;;;;;;;9.30;8.70;;;;;;;;;;7326027;19;161993;-13
2021/11/26 01:21:16;;;;;;;9.15;8.55;;;;;;;;;;7329020;19;162537;-15
2021/11/26 01:23:50;;;;;;;9.27;8.57;;;;;;;;;;7329562;19;154272;-15
2021/11/26 01:26:21;;;;;;;9.25;8.65;;;;;;;;;;7329523;19;153598;-15
2021/11/26 01:28:52;;;;;;;8.40;7.80;;;;;;;;;;7329040;19;162559;-14
2021/11/26 01:31:24;;;;;;;9.07;8.48;;;;;;;;;;7329004;19;162336;-14
2021/11/26 01:33:55;;;;;;;9.02;8.38;;;;;;;;;;7329629;19;154275;-15
2021/11/26 01:36:27;;;;;;;8.88;8.27;;;;;;;;;;7328986;19;153606;-14
2021/11/26 01:39:00;;;;;;;9.68;8.95;;;;;;;;;;7325147;19;161975;-13
2021/11/26 01:41:34;;;;;;;8.63;8.02;;;;;;;;;;7328558;19;162372;-14
2021/11/26 01:44:05;;;;;;;5.80;5.40;;;;;;;;;;7329035;19;154126;-14
2021/11/26 01:46:41;;;;;;;5.20;4.82;;;;;;;;;;7329068;19;153532;-14
2021/11/26 11:29:23;;;;;;;0.40;0.40;;;;;;;;;;7369638;19;132425;-11
2021/11/26 11:31:57;;;;;;;0.45;0.45;;;;;;;;;;7364228;19;153567;-12
2021/11/26 11:34:30;;;;;;;0.30;0.30;;;;;;;;;;7363455;19;161833;-12
2021/11/26 11:37:06;;;;;;;;;;;;;;;;;;7362250;19;162383;-15
2021/11/26 11:39:46;;;;;;;0.55;0.40;;;;;;;;;;7363785;19;154053;-12
2021/11/26 11:42:27;;;;;;;0.60;0.40;;;;;;;;;;7363751;19;153556;-12
2021/11/26 11:45:08;;;;;;;0.30;0.30;;;;;;;;;;7363124;19;161805;-13
2021/11/26 11:47:45;;;;;;;0.40;0.40;;;;;;;;;;7363017;19;162571;-15
2021/11/26 11:50:19;;;;;;;0.40;0.40;;;;;;;;;;7363658;19;153941;-12
2021/11/26 11:52:57;;;;;;;0.40;0.40;;;;;;;;;;7363403;19;153496;-15
2021/11/26 11:55:31;;;;;;;0.52;0.50;;;;;;;;;;7363259;19;161984;-14
2021/11/26 11:58:16;;;;;;;0.40;0.40;;;;;;;;;;7359786;19;162459;-15
2021/11/26 12:00:51;;;;;;;0.88;0.52;;;;;;;;;;7363098;19;153921;-14
2021/11/26 12:03:25;;;;;;;0.25;0.25;;;;;;;;;;7363116;19;153497;-14
2021/11/26 12:06:01;;;;;;;0.30;0.30;;;;;;;;;;7362633;19;161944;-15
2021/11/26 12:08:33;;;;;;;0.40;0.40;;;;;;;;;;7362455;19;162602;-13
2021/11/26 12:11:04;;;;;;;0.40;0.40;;;;;;;;;;7362612;19;153879;-13
2021/11/26 12:13:37;;;;;;;0.40;0.40;;;;;;;;;;7362270;19;153542;-13
2021/11/26 12:16:14;;;;;;;0.52;0.40;;;;;;;;;;7362060;19;161757;-14
2021/11/26 12:18:47;;;;;;;0.40;0.40;;;;;;;;;;7360857;19;162709;-14
2021/11/26 12:21:24;;;;;;;0.40;0.40;;;;;;;;;;7365664;19;154143;-13
2021/11/26 12:24:13;;;;;;;0.30;0.30;;;;;;;;;;7365173;19;153523;-13
2021/11/26 12:26:52;;;;;;;0.50;0.40;;;;;;;;;;7365421;19;161765;-13
2021/11/26 12:29:34;;;;;;;0.30;0.30;;;;;;;;;;7345548;19;162386;-14
2021/11/26 12:32:17;;;;;;;0.50;0.50;;;;;;;;;;7335465;19;153918;-14
2021/11/26 12:34:51;;;;;;;0.40;0.40;;;;;;;;;;7332679;19;153752;-15
2021/11/26 12:37:24;;;;;;;0.30;0.30;;;;;;;;;;7335253;19;161840;-12
2021/11/26 12:39:58;;;;;;;0.30;0.30;;;;;;;;;;7335570;19;162372;-14
2021/11/26 12:42:30;;;;;;;0.32;0.32;;;;;;;;;;7331267;19;153932;-13
2021/11/26 12:45:05;;;;;;;0.32;0.32;;;;;;;;;;7333419;19;153687;-13
2021/11/26 12:47:40;;;;;;;0.40;0.40;;;;;;;;;;7336112;19;161987;-14
2021/11/26 12:53:06;;;;;;;0.40;0.40;;;;;;;;;;7331314;19;154004;-12
2021/11/26 12:55:38;;;;;;;0.50;0.50;;;;;;;;;;7332613;19;153690;-14
2021/11/26 12:58:10;;;;;;;0.30;0.30;;;;;;;;;;7330099;19;161883;-14
2021/11/26 13:00:42;;;;;;;0.40;0.40;;;;;;;;;;7333709;19;162437;-15
2021/11/26 13:03:16;;;;;;;0.30;0.30;;;;;;;;;;7332303;19;154047;-13
2021/11/26 13:05:53;;;;;;;0.38;0.38;;;;;;;;;;7332112;19;153554;-13
2021/11/26 13:08:24;;;;;;;3.25;2.85;;;;;;;;;;7332314;19;162115;-14
2021/11/26 13:10:56;;;;;;;8.20;7.40;;;;;;;;;;7332261;19;162353;-13
2021/11/26 13:13:29;;;;;;;4.35;3.47;;;;;;;;;;7335882;19;154133;-14
2021/11/26 13:16:00;;;;;;;2.55;2.03;;;;;;;;;;7336183;19;153541;-13
2021/11/26 13:18:34;;;;;;;1.60;1.50;;;;;;;;;;7334003;19;161982;-15
2021/11/26 13:21:09;;;;;;;3.20;1.98;;;;;;;;;;7334275;19;162439;-13
2021/11/26 13:23:41;;;;;;;2.53;2.33;;;;;;;;;;7335378;19;153913;-14
2021/11/26 13:26:14;;;;;;;2.92;2.60;;;;;;;;;;7334756;19;153907;-14
2021/11/26 13:28:47;;;;;;;2.67;2.47;;;;;;;;;;7333042;19;162114;-14
2021/11/26 13:31:22;;;;;;;3.95;3.30;;;;;;;;;;7333362;19;162259;-14
2021/11/26 13:33:59;;;;;;;4.32;3.25;;;;;;;;;;7333421;19;154110;-13
2021/11/26 13:36:33;;;;;;;5.03;3.35;;;;;;;;;;7335930;19;153483;-13
2021/11/26 13:39:10;;;;;;;3.85;3.45;;;;;;;;;;7333730;19;161994;-13
2021/11/26 13:41:43;;;;;;;3.58;3.28;;;;;;;;;;7332262;19;162300;-13
2021/11/26 13:44:19;;;;;;;4.13;3.20;;;;;;;;;;7333528;19;153992;-11
2021/11/26 13:46:54;;;;;;;4.03;3.63;;;;;;;;;;7335109;19;154203;-13
2021/11/26 13:49:28;;;;;;;3.63;3.28;;;;;;;;;;7334512;19;161703;-13
2021/11/26 13:52:02;;;;;;;5.03;4.00;;;;;;;;;;7334285;19;162486;-12
2021/11/26 13:54:55;;;;;;;26.30;21.80;;;;;;;;;;7334815;19;153961;-12
2021/11/26 13:57:28;;;;;;;24.20;19.15;;;;;;;;;;7335651;19;153636;-14
2021/11/26 14:00:12;;;;;;;16.38;14.43;;;;;;;;;;7328716;19;162540;-14
2021/11/26 14:02:52;;;;;;;15.88;14.07;;;;;;;;;;7330746;19;162344;-12
2021/11/26 14:05:35;;;;;;;14.93;13.38;;;;;;;;;;7331422;19;154073;-15
2021/11/26 14:08:08;;;;;;;14.20;12.70;;;;;;;;;;7329579;19;153478;-11
2021/11/26 14:10:54;;;;;;;13.88;12.48;;;;;;;;;;7330200;19;161908;-12
2021/11/26 14:13:28;;;;;;;13.30;11.63;;;;;;;;;;7332539;19;162646;-13
2021/11/26 14:16:07;;;;;;;13.70;11.63;;;;;;;;;;7330756;19;154206;-13
2021/11/26 14:18:38;;;;;;;14.27;11.50;;;;;;;;;;7330061;19;153541;-13
2021/11/26 14:21:12;;;;;;;11.93;10.73;;;;;;;;;;7330190;19;161863;-15
2021/11/26 14:23:54;;;;;;;11.00;9.48;;;;;;;;;;7329424;19;162408;-14
2021/11/26 14:26:26;;;;;;;11.15;9.95;;;;;;;;;;7330513;19;153928;-14
2021/11/26 14:29:12;;;;;;;11.07;9.98;;;;;;;;;;7327805;19;153542;-15
2021/11/26 14:31:44;;;;;;;10.48;9.38;;;;;;;;;;7329870;19;161601;-15
2021/11/26 14:34:17;;;;;;;11.15;9.65;;;;;;;;;;7329815;19;162395;-12
2021/11/26 14:36:54;;;;;;;10.07;9.07;;;;;;;;;;7330266;19;153939;-14
2021/11/26 14:39:32;;;;;;;10.43;8.88;;;;;;;;;;7329195;19;153650;-14
2021/11/26 14:42:06;;;;;;;9.90;8.90;;;;;;;;;;7329909;19;162033;-13
2021/11/26 14:44:43;;;;;;;8.98;8.07;;;;;;;;;;7329983;19;162509;-12
2021/11/26 14:47:30;;;;;;;12.23;8.63;;;;;;;;;;7330269;19;153984;-13
2021/11/26 14:50:01;;;;;;;8.75;7.85;;;;;;;;;;7329041;19;153887;-13
2021/11/26 14:52:36;;;;;;;7.72;6.95;;;;;;;;;;7327677;19;161976;-25
2021/11/26 14:55:07;;;;;;;9.65;8.48;;;;;;;;;;7329482;19;162336;-13
2021/11/26 14:57:39;;;;;;;8.77;7.88;;;;;;;;;;7329751;19;154359;-14
2021/11/26 15:00:13;;;;;;;8.75;7.40;;;;;;;;;;7327884;19;153521;-13
2021/11/26 15:02:44;;;;;;;7.97;7.18;;;;;;;;;;7329079;19;161634;-14
2021/11/26 15:05:17;;;;;;;7.95;7.15;;;;;;;;;;7328846;19;162319;-14
2021/11/26 15:07:51;;;;;;;7.97;7.25;;;;;;;;;;7329398;19;154156;-14
2021/11/26 15:10:23;;;;;;;7.65;6.90;;;;;;;;;;7328120;19;153558;-16
2021/11/26 15:12:54;;;;;;;7.53;6.72;;;;;;;;;;7327859;19;161958;-15
2021/11/26 15:15:25;;;;;;;7.53;6.82;;;;;;;;;;7328698;19;162608;-14
2021/11/26 15:17:56;;;;;;;7.55;6.72;;;;;;;;;;7329066;19;154013;-13
2021/11/26 15:20:28;;;;;;;6.72;6.07;;;;;;;;;;7327663;19;153585;-13
2021/11/26 15:23:02;;;;;;;6.65;5.95;;;;;;;;;;7328869;19;161869;-13
2021/11/26 15:25:33;;;;;;;6.78;6.15;;;;;;;;;;7328389;19;162351;-13
2021/11/26 15:28:04;;;;;;;6.93;6.22;;;;;;;;;;7327410;19;153932;-14
2021/11/26 15:30:36;;;;;;;6.47;5.88;;;;;;;;;;7328608;19;154044;-13
2021/11/26 15:33:07;;;;;;;6.38;5.47;;;;;;;;;;7328394;19;161871;-15
2021/11/26 15:35:39;;;;;;;6.18;5.57;;;;;;;;;;7328325;19;162696;-12
2021/11/26 15:38:24;;;;;;;5.60;5.10;;;;;;;;;;7328628;19;153965;-15
2021/11/26 15:40:55;;;;;;;5.78;5.18;;;;;;;;;;7326728;19;153556;-14
2021/11/26 15:43:27;;;;;;;5.75;5.10;;;;;;;;;;7328147;19;162426;-13
2021/11/26 15:45:58;;;;;;;5.30;4.80;;;;;;;;;;7327927;19;162341;-13
2021/11/26 15:48:30;;;;;;;5.55;5.03;;;;;;;;;;7327705;19;154434;-13
2021/11/26 15:51:01;;;;;;;4.53;4.13;;;;;;;;;;7329095;19;153491;-13
2021/11/26 15:53:37;;;;;;;3.60;3.25;;;;;;;;;;7329825;19;161767;-14
2021/11/26 15:56:13;;;;;;;3.33;3.03;;;;;;;;;;7330842;19;162495;-14
2021/11/26 15:58:46;;;;;;;3.10;2.80;;;;;;;;;;7331012;19;154105;-14
2021/11/26 16:01:20;;;;;;;2.50;2.33;;;;;;;;;;7329210;19;153815;-12
2021/11/26 16:03:53;;;;;;;2.20;2.03;;;;;;;;;;7331751;19;161964;-15
2021/11/26 16:06:26;;;;;;;2.10;1.90;;;;;;;;;;7335574;19;162486;-13
2021/11/26 16:09:02;;;;;;;;;;;;;;;;;;7337706;19;153959;-13
2021/11/26 16:11:36;;;;;;;1.50;1.40;;;;;;;;;;7337699;19;153418;-14
2021/11/26 16:14:10;;;;;;;1.10;1.10;;;;;;;;;;7336226;19;161963;-14
2021/11/26 16:16:41;;;;;;;1.23;1.20;;;;;;;;;;7337126;19;162652;-14
2021/11/26 16:19:12;;;;;;;1.25;1.17;;;;;;;;;;7337366;19;153951;-13
2021/11/26 16:21:44;;;;;;;1.00;1.00;;;;;;;;;;7334847;19;153493;-13
2021/11/26 16:24:18;;;;;;;0.80;0.80;;;;;;;;;;7336421;19;162023;-12
2021/11/26 16:26:50;;;;;;;0.93;0.93;;;;;;;;;;7336100;19;162613;-14
2021/11/26 16:29:21;;;;;;;0.70;0.70;;;;;;;;;;7337483;19;153947;-15
2021/11/26 16:31:57;;;;;;;0.52;0.52;;;;;;;;;;7336934;19;153625;-12
2021/11/26 16:34:32;;;;;;;0.73;0.70;;;;;;;;;;7336386;19;161862;-14
2021/11/26 16:37:11;;;;;;;0.43;0.43;;;;;;;;;;7336214;19;162404;-14
2021/11/26 16:39:46;;;;;;;0.57;0.57;;;;;;;;;;7336944;19;154135;-13
2021/11/26 16:42:19;;;;;;;0.60;0.60;;;;;;;;;;7334481;19;154277;-14
2021/11/26 16:44:50;;;;;;;0.60;0.60;;;;;;;;;;7336182;19;161784;-14
2021/11/26 16:47:21;;;;;;;0.50;0.50;;;;;;;;;;7335557;19;162413;-16
2021/11/26 16:49:52;;;;;;;0.75;0.60;;;;;;;;;;7334779;19;153944;-14
2021/11/26 16:52:24;;;;;;;0.50;0.50;;;;;;;;;;7335993;19;153654;-15
2021/11/26 16:54:58;;;;;;;0.40;0.40;;;;;;;;;;7335889;19;161754;-12
2021/11/26 16:57:30;;;;;;;0.50;0.50;;;;;;;;;;7336113;19;162351;-13
2021/11/26 17:00:02;;;;;;;0.50;0.50;;;;;;;;;;7336445;19;154083;-14
2021/11/26 17:02:33;;;;;;;0.40;0.40;;;;;;;;;;7333841;19;153481;-11
2021/11/26 17:05:05;;;;;;;0.43;0.43;;;;;;;;;;7335565;19;161775;-11
2021/11/26 17:07:38;;;;;;;0.40;0.40;;;;;;;;;;7335302;19;162364;-13
2021/11/26 17:10:12;;;;;;;0.30;0.30;;;;;;;;;;7335838;19;154176;-13
2021/11/26 17:12:44;;;;;;;0.30;0.30;;;;;;;;;;7335091;19;153505;-14
2021/11/26 17:15:17;;;;;;;0.40;0.40;;;;;;;;;;7333808;19;161802;-13
2021/11/26 17:17:49;;;;;;;0.35;0.35;;;;;;;;;;7335301;19;162575;-16
2021/11/26 17:20:20;;;;;;;0.30;0.30;;;;;;;;;;7336107;19;153984;-12
2021/11/26 17:22:52;;;;;;;0.28;0.28;;;;;;;;;;7333040;19;153683;-12
2021/11/26 17:25:27;;;;;;;0.30;0.30;;;;;;;;;;7335092;19;161946;-12
2021/11/26 17:27:59;;;;;;;0.40;0.40;;;;;;;;;;7333496;19;162698;-13
2021/11/26 17:30:31;;;;;;;0.22;0.22;;;;;;;;;;7335738;19;154045;-11
2021/11/26 17:33:02;;;;;;;0.30;0.30;;;;;;;;;;7335142;19;153563;-12
2021/11/26 17:35:34;;;;;;;0.30;0.30;;;;;;;;;;7334576;19;162024;-12
2021/11/26 17:38:05;;;;;;;0.25;0.25;;;;;;;;;;7334724;19;162531;-13
2021/11/26 17:40:39;;;;;;;0.38;0.38;;;;;;;;;;7333881;19;154141;-13
2021/11/26 17:43:11;;;;;;;0.20;0.20;;;;;;;;;;7332215;19;153509;-11
2021/11/26 17:45:42;;;;;;;0.30;0.30;;;;;;;;;;7334471;19;161870;-12
2021/11/26 17:48:14;;;;;;;0.35;0.30;;;;;;;;;;7330987;19;162384;-12
2021/11/26 17:50:45;;;;;;;0.40;0.40;;;;;;;;;;7331342;19;153947;-14
2021/11/26 17:53:17;;;;;;;0.30;0.30;;;;;;;;;;7332770;19;153584;-13
2021/11/26 17:55:50;;;;;;;0.28;0.28;;;;;;;;;;7333498;19;161816;-12
2021/11/26 17:58:22;;;;;;;0.30;0.30;;;;;;;;;;7331899;19;162382;-14
2021/11/26 18:00:59;;;;;;;0.32;0.32;;;;;;;;;;7333350;19;154046;-12
2021/11/26 18:03:32;;;;;;;0.50;0.50;;;;;;;;;;7332763;19;153642;-12
2021/11/26 18:06:09;;;;;;;;;;;;;;;;;;7332528;19;161926;-11
2021/11/26 18:08:46;;;;;;;0.20;0.20;;;;;;;;;;7332309;19;162808;-13
2021/11/26 18:11:26;;;;;;;0.38;0.38;;;;;;;;;;7333749;19;153906;-12
2021/11/26 18:13:58;;;;;;;0.30;0.30;;;;;;;;;;7332782;19;153792;-13
2021/11/26 18:16:29;;;;;;;0.30;0.30;;;;;;;;;;7326554;19;161464;-12
2021/11/26 18:19:00;;;;;;;0.35;0.35;;;;;;;;;;7326309;19;162343;-12
2021/11/26 18:21:32;;;;;;;0.30;0.30;;;;;;;;;;7326773;19;153949;-11
2021/11/26 18:24:03;;;;;;;0.20;0.20;;;;;;;;;;7329188;19;153588;-14
2021/11/26 18:26:38;;;;;;;0.70;0.22;;;;;;;;;;7327691;19;161786;-13
2021/11/26 18:29:10;;;;;;;0.20;0.20;;;;;;;;;;7325119;19;162218;-13
2021/11/26 18:31:41;;;;;;;0.30;0.30;;;;;;;;;;7329855;19;154145;-13
2021/11/26 18:34:12;;;;;;;0.20;0.20;;;;;;;;;;7330138;19;153707;-12
2021/11/26 18:36:43;;;;;;;0.30;0.30;;;;;;;;;;7329420;19;161757;-12
2021/11/26 18:39:16;;;;;;;0.22;0.22;;;;;;;;;;7329585;19;162468;-13
2021/11/26 18:41:50;;;;;;;0.30;0.30;;;;;;;;;;7329200;19;154043;-13
2021/11/26 18:44:23;;;;;;;0.30;0.30;;;;;;;;;;7329737;19;153639;-13
2021/11/26 18:46:55;;;;;;;0.22;0.22;;;;;;;;;;7329158;19;161714;-13
2021/11/26 18:49:28;;;;;;;0.28;0.28;;;;;;;;;;7329211;19;162364;-13
2021/11/26 18:51:59;;;;;;;0.20;0.20;;;;;;;;;;7329516;19;153955;-12
2021/11/26 18:54:31;;;;;;;0.30;0.30;;;;;;;;;;7328649;19;153526;-12
2021/11/26 18:57:07;;;;;;;0.20;0.20;;;;;;;;;;7328839;19;162486;-13
2021/11/26 18:59:41;;;;;;;0.30;0.30;;;;;;;;;;7327839;19;162561;-13
2021/11/26 19:02:14;;;;;;;0.35;0.35;;;;;;;;;;7329042;19;154111;-13
2021/11/26 19:04:45;;;;;;;0.20;0.20;;;;;;;;;;7329417;19;153800;-14
2021/11/26 19:07:17;;;;;;;0.38;0.30;;;;;;;;;;7328826;19;161828;-14
2021/11/26 19:09:48;;;;;;;0.30;0.30;;;;;;;;;;7328355;19;162788;-14
2021/11/26 19:12:22;;;;;;;0.22;0.22;;;;;;;;;;7328818;19;154208;-13
2021/11/26 19:14:54;;;;;;;0.28;0.28;;;;;;;;;;7328637;19;153667;-13
2021/11/26 19:17:25;;;;;;;0.27;0.27;;;;;;;;;;7328411;19;162036;-13
2021/11/26 19:19:57;;;;;;;0.20;0.20;;;;;;;;;;7328422;19;162370;-14
2021/11/26 19:22:35;;;;;;;0.30;0.30;;;;;;;;;;7327892;19;153959;-14
2021/11/26 19:25:11;;;;;;;0.20;0.20;;;;;;;;;;7328572;19;153581;-13
2021/11/26 19:27:46;;;;;;;0.20;0.20;;;;;;;;;;7326980;19;162063;-13
2021/11/26 19:30:20;;;;;;;0.30;0.30;;;;;;;;;;7327964;19;162393;-13
2021/11/26 19:32:53;;;;;;;0.20;0.20;;;;;;;;;;7328437;19;153918;-13
2021/11/26 19:35:24;;;;;;;0.30;0.30;;;;;;;;;;7328346;19;153475;-14
2021/11/26 19:37:57;;;;;;;0.20;0.20;;;;;;;;;;7327685;19;161794;-12
2021/11/26 19:40:31;;;;;;;0.20;0.20;;;;;;;;;;7333723;19;162504;-12
2021/11/26 19:43:08;;;;;;;0.98;0.30;;;;;;;;;;7333842;19;153934;-13
2021/11/26 19:45:41;;;;;;;0.20;0.20;;;;;;;;;;7334255;19;153493;-14
2021/11/26 19:48:12;;;;;;;0.30;0.30;;;;;;;;;;7336529;19;161791;-14
2021/11/26 19:50:45;;;;;;;0.28;0.28;;;;;;;;;;7337759;19;162364;-14
2021/11/26 19:53:17;;;;;;;0.30;0.30;;;;;;;;;;7338455;19;154014;-13
2021/11/26 19:55:48;;;;;;;0.22;0.22;;;;;;;;;;7337433;19;153756;-13
2021/11/26 19:58:23;;;;;;;0.30;0.30;;;;;;;;;;7334104;19;161920;-16
2021/11/26 20:00:54;;;;;;;0.20;0.20;;;;;;;;;;7335555;19;162331;-15
2021/11/26 20:03:26;;;;;;;0.20;0.20;;;;;;;;;;7336672;19;153962;-12
2021/11/26 20:05:57;;;;;;;0.20;0.20;;;;;;;;;;7334695;19;153561;-14
2021/11/26 20:08:29;;;;;;;0.30;0.30;;;;;;;;;;7333999;19;161979;-13
2021/11/26 20:11:02;;;;;;;0.20;0.20;;;;;;;;;;7333909;19;162458;-13
2021/11/26 20:13:36;;;;;;;;;;;;;;;;;;7334699;19;153997;-15
2021/11/26 20:16:07;;;;;;;0.32;0.32;;;;;;;;;;7334233;19;153108;-13
2021/11/26 20:18:39;;;;;;;0.20;0.20;;;;;;;;;;7333238;19;162469;-13
2021/11/26 20:21:10;;;;;;;0.20;0.20;;;;;;;;;;7333370;19;162393;-14
2021/11/26 20:23:43;;;;;;;0.30;0.30;;;;;;;;;;7332432;19;154342;-14
2021/11/26 20:26:14;;;;;;;0.20;0.20;;;;;;;;;;7333615;19;153762;-14
2021/11/26 20:28:48;;;;;;;0.20;0.20;;;;;;;;;;7331126;19;161819;-14
2021/11/26 20:31:20;;;;;;;0.28;0.28;;;;;;;;;;7331717;19;162392;-13
2021/11/26 20:33:51;;;;;;;0.22;0.22;;;;;;;;;;7336875;19;153985;-15
2021/11/26 20:36:25;;;;;;;0.43;0.20;;;;;;;;;;7330983;19;153916;-14
2021/11/26 20:38:57;;;;;;;0.25;0.25;;;;;;;;;;7331869;19;161956;-12
2021/11/26 20:41:32;;;;;;;0.20;0.20;;;;;;;;;;7335673;19;162652;-14
2021/11/26 20:44:08;;;;;;;0.30;0.30;;;;;;;;;;7334265;19;153943;-15
2021/11/26 20:46:40;;;;;;;0.20;0.20;;;;;;;;;;7336170;19;153319;-13
2021/11/26 20:49:13;;;;;;;0.30;0.30;;;;;;;;;;7335110;19;161837;-13
2021/11/26 20:51:45;;;;;;;0.20;0.20;;;;;;;;;;7334678;19;162708;-13
2021/11/26 20:54:18;;;;;;;0.20;0.20;;;;;;;;;;7336251;19;154145;-15
2021/11/26 20:56:51;;;;;;;0.20;0.20;;;;;;;;;;7334872;19;153654;-14
2021/11/26 20:59:25;;;;;;;0.30;0.30;;;;;;;;;;7333497;19;161810;-15
2021/11/26 21:01:57;;;;;;;0.40;0.40;;;;;;;;;;7335238;19;163310;-16
2021/11/26 21:04:28;;;;;;;1.38;0.90;;;;;;;;;;7333949;19;154042;-15
2021/11/26 21:07:00;;;;;;;0.93;0.80;;;;;;;;;;7333810;19;153518;-14
2021/11/26 21:09:31;;;;;;;0.85;0.75;;;;;;;;;;7335497;19;161998;-15
2021/11/26 21:12:03;;;;;;;0.60;0.60;;;;;;;;;;7335158;19;162414;-13
2021/11/26 21:14:37;;;;;;;1.15;1.05;;;;;;;;;;7336586;19;153977;-14
2021/11/26 21:17:08;;;;;;;2.05;1.42;;;;;;;;;;7336060;19;153638;-14
2021/11/26 21:19:41;;;;;;;1.48;1.17;;;;;;;;;;7335337;19;162087;-14
2021/11/26 21:22:12;;;;;;;1.35;1.05;;;;;;;;;;7333419;19;162554;-14
2021/11/26 21:24:44;;;;;;;1.35;1.17;;;;;;;;;;7332525;19;153958;-14
2021/11/26 21:27:16;;;;;;;1.15;1.05;;;;;;;;;;7331532;19;153539;-12
2021/11/26 21:29:50;;;;;;;0.95;0.95;;;;;;;;;;7331468;19;162275;-13
2021/11/26 21:32:21;;;;;;;1.83;1.30;;;;;;;;;;7334151;19;162408;-15
2021/11/26 21:34:53;;;;;;;1.13;1.10;;;;;;;;;;7334649;19;154223;-13
2021/11/26 21:37:24;;;;;;;1.73;1.27;;;;;;;;;;7334957;19;153738;-12
2021/11/26 21:39:55;;;;;;;1.00;1.00;;;;;;;;;;7335156;19;161662;-13
2021/11/26 21:42:34;;;;;;;0.90;0.90;;;;;;;;;;7334193;19;162335;-12
2021/11/26 21:45:11;;;;;;;1.67;1.00;;;;;;;;;;7332572;19;154119;-12
2021/11/26 21:47:45;;;;;;;1.23;1.08;;;;;;;;;;7334351;19;153678;-13
2021/11/26 21:50:17;;;;;;;2.05;1.23;;;;;;;;;;7333822;19;161963;-13
2021/11/26 21:52:49;;;;;;;1.17;1.00;;;;;;;;;;7333551;19;162318;-15
2021/11/26 21:55:21;;;;;;;1.30;1.20;;;;;;;;;;7332412;19;153973;-14
2021/11/26 21:57:52;;;;;;;0.90;0.90;;;;;;;;;;7333940;19;153769;-12
2021/11/26 22:00:29;;;;;;;1.17;1.08;;;;;;;;;;7333055;19;161863;-14
2021/11/26 22:03:15;;;;;;;1.55;1.10;;;;;;;;;;7332050;19;162365;-13
2021/11/26 22:05:49;;;;;;;1.08;1.00;;;;;;;;;;7330800;19;154207;-14
2021/11/26 22:08:20;;;;;;;1.15;1.08;;;;;;;;;;7333492;19;153480;-14
2021/11/26 22:10:52;;;;;;;1.55;1.13;;;;;;;;;;7333667;19;162001;-13
2021/11/26 22:13:24;;;;;;;1.23;1.13;;;;;;;;;;7334085;19;162365;-14
2021/11/26 22:15:58;;;;;;;1.43;1.03;;;;;;;;;;7333975;19;154114;-13
2021/11/26 22:18:30;;;;;;;1.20;1.10;;;;;;;;;;7334436;19;153634;-14
2021/11/26 22:21:01;;;;;;;1.42;1.00;;;;;;;;;;7330693;19;161859;-13
2021/11/26 22:23:33;;;;;;;0.90;0.90;;;;;;;;;;7328916;19;162654;-13
2021/11/26 22:26:06;;;;;;;0.88;0.88;;;;;;;;;;7327869;19;153970;-13
2021/11/26 22:28:38;;;;;;;1.10;0.95;;;;;;;;;;7327858;19;153726;-13
2021/11/26 22:31:12;;;;;;;1.00;0.90;;;;;;;;;;7329764;19;161736;-13
2021/11/26 22:33:43;;;;;;;1.23;0.90;;;;;;;;;;7329562;19;162355;-14
2021/11/26 22:36:14;;;;;;;1.00;1.00;;;;;;;;;;7330092;19;154081;-13
2021/11/26 22:38:47;;;;;;;0.90;0.90;;;;;;;;;;7329842;19;153648;-14
2021/11/26 22:41:18;;;;;;;1.23;1.13;;;;;;;;;;7329624;19;161665;-13
2021/11/26 22:43:54;;;;;;;0.93;0.93;;;;;;;;;;7329346;19;162485;-15
2021/11/26 22:46:29;;;;;;;0.88;0.80;;;;;;;;;;7327005;19;154124;-15
2021/11/26 22:49:01;;;;;;;0.95;0.88;;;;;;;;;;7329422;19;153642;-14
2021/11/26 22:51:33;;;;;;;0.80;0.80;;;;;;;;;;7332913;19;161935;-14
2021/11/26 22:54:05;;;;;;;1.03;1.03;;;;;;;;;;7329077;19;162514;-13
2021/11/26 22:56:36;;;;;;;1.10;1.00;;;;;;;;;;7329454;19;153959;-13
2021/11/26 22:59:08;;;;;;;0.90;0.90;;;;;;;;;;7329099;19;153629;-14
2021/11/26 23:01:42;;;;;;;0.70;0.70;;;;;;;;;;7329036;19;161895;-13
2021/11/26 23:04:15;;;;;;;0.85;0.85;;;;;;;;;;7329026;19;162329;-15
2021/11/26 23:06:46;;;;;;;0.80;0.80;;;;;;;;;;7329018;19;153949;-14
2021/11/26 23:09:17;;;;;;;0.73;0.73;;;;;;;;;;7331956;19;154002;-15
2021/11/26 23:11:51;;;;;;;0.95;0.90;;;;;;;;;;7330045;19;161809;-13
2021/11/26 23:14:26;;;;;;;0.88;0.88;;;;;;;;;;7330546;19;162565;-13
2021/11/26 23:17:00;;;;;;;0.80;0.80;;;;;;;;;;7332259;19;153997;-13
2021/11/26 23:19:31;;;;;;;0.85;0.73;;;;;;;;;;7331666;19;153575;-13
2021/11/26 23:22:05;;;;;;;0.90;0.90;;;;;;;;;;7330329;19;161837;-12
2021/11/26 23:24:37;;;;;;;1.10;1.00;;;;;;;;;;7329747;19;162507;-13
2021/11/26 23:27:09;;;;;;;1.10;1.00;;;;;;;;;;7329835;19;154047;-14
2021/11/26 23:29:42;;;;;;;1.45;1.23;;;;;;;;;;7329016;19;153694;-14
2021/11/26 23:32:18;;;;;;;0.80;0.80;;;;;;;;;;7328896;19;161814;-14
2021/11/26 23:34:49;;;;;;;0.73;0.70;;;;;;;;;;7327915;19;162429;-14
2021/11/26 23:37:21;;;;;;;1.10;1.00;;;;;;;;;;7327555;19;154077;-14
2021/11/26 23:39:52;;;;;;;0.70;0.70;;;;;;;;;;7328027;19;153679;-16
2021/11/26 23:42:23;;;;;;;0.70;0.70;;;;;;;;;;7327750;19;162275;-13
2021/11/26 23:44:55;;;;;;;0.90;0.90;;;;;;;;;;7327774;19;162395;-14
2021/11/26 23:47:29;;;;;;;0.70;0.70;;;;;;;;;;7325485;19;155820;-14
2021/11/26 23:50:00;;;;;;;0.60;0.60;;;;;;;;;;7327765;19;153782;-13
2021/11/26 23:52:31;;;;;;;1.02;0.95;;;;;;;;;;7330725;19;162052;-14
2021/11/26 23:55:03;;;;;;;0.88;0.70;;;;;;;;;;7328308;19;162362;-13
2021/11/26 23:57:34;;;;;;;0.52;0.52;;;;;;;;;;7331162;19;153985;-15
